createdAt,value
2022-11-15T00:00:57.256Z,98160.13
2022-11-15T00:03:26.377Z,98164.41
2022-11-15T00:05:53.521Z,98160.19
2022-11-15T00:08:20.606Z,98153.59
2022-11-15T00:11:01.023Z,98157.13
2022-11-15T00:13:29.069Z,98149.41
2022-11-15T00:16:01.936Z,98154.66
2022-11-15T00:18:29.924Z,98162.44
2022-11-15T00:20:57.115Z,98157.03
2022-11-15T00:23:23.797Z,98152.69
2022-11-15T00:25:57.767Z,98155.31
2022-11-15T00:28:25.036Z,98156.28
2022-11-15T00:30:51.871Z,98157.34
2022-11-15T00:33:19.193Z,98151.13
2022-11-15T00:35:45.858Z,98147.53
2022-11-15T00:38:12.449Z,98153.59
2022-11-15T00:40:39.067Z,98151.72
2022-11-15T00:43:05.523Z,98142.94
2022-11-15T00:45:32.139Z,98149.72
2022-11-15T00:47:58.721Z,98142.59
2022-11-15T00:50:25.414Z,98140.94
2022-11-15T00:52:51.982Z,98145.34
2022-11-15T00:55:20.159Z,98142.66
2022-11-15T00:57:48.060Z,98153.16
2022-11-15T01:00:14.915Z,98146.13
2022-11-15T01:02:41.685Z,98148.97
2022-11-15T01:05:08.867Z,98142.66
2022-11-15T01:07:35.639Z,98128.81
2022-11-15T01:10:02.333Z,98140.88
2022-11-15T01:12:29.079Z,98136.09
2022-11-15T01:14:55.771Z,98135.38
2022-11-15T01:17:22.570Z,98128.41
2022-11-15T01:19:49.152Z,98130.38
2022-11-15T01:22:15.870Z,98129.03
2022-11-15T01:24:42.788Z,98134.19
2022-11-15T01:27:09.805Z,98130.44
2022-11-15T01:29:36.455Z,98127.53
2022-11-15T01:32:03.408Z,98135.19
2022-11-15T01:34:29.898Z,98122.94
2022-11-15T01:36:56.604Z,98123.13
2022-11-15T01:39:23.252Z,98116.09
2022-11-15T01:41:49.937Z,98123.66
2022-11-15T01:44:34.727Z,98122.28
2022-11-15T01:47:04.232Z,98121.16
2022-11-15T01:49:34.972Z,98118.81
2022-11-15T01:52:05.031Z,98118.25
2022-11-15T01:54:32.228Z,98118.63
2022-11-15T01:57:11.167Z,98107.16
2022-11-15T01:59:41.662Z,98106.63
2022-11-15T02:02:08.698Z,98104.50
2022-11-15T02:04:40.690Z,98102.53
2022-11-15T02:07:10.984Z,98094.06
2022-11-15T02:09:38.734Z,98087.97
2022-11-15T02:12:07.459Z,98087.97
2022-11-15T02:14:34.940Z,98085.25
2022-11-15T02:17:19.848Z,98080.88
2022-11-15T02:20:04.661Z,98078.03
2022-11-15T02:22:44.519Z,98086.78
2022-11-15T02:25:16.771Z,98075.38
2022-11-15T02:28:00.758Z,98072.94
2022-11-15T02:30:39.137Z,98068.50
2022-11-15T02:33:18.009Z,98066.25
2022-11-15T02:35:59.647Z,98071.44
2022-11-15T02:38:31.634Z,98066.19
2022-11-15T02:41:00.990Z,98062.06
2022-11-15T02:43:59.804Z,98060.31
2022-11-15T02:47:03.726Z,98055.13
2022-11-15T02:49:33.580Z,98046.59
2022-11-15T02:52:00.160Z,98051.75
2022-11-15T02:54:30.960Z,98047.50
2022-11-15T02:57:07.062Z,98048.44
2022-11-15T02:59:54.304Z,98056.50
2022-11-15T03:03:06.891Z,98062.81
2022-11-15T03:05:42.216Z,98064.63
2022-11-15T03:08:11.472Z,98060.28
2022-11-15T03:10:52.580Z,98064.59
2022-11-15T03:13:27.555Z,98068.16
2022-11-15T03:16:04.587Z,98067.16
2022-11-15T03:18:34.954Z,98065.44
2022-11-15T03:21:06.505Z,98069.88
2022-11-15T03:23:34.613Z,98065.66
2022-11-15T03:26:04.497Z,98060.66
2022-11-15T03:28:39.644Z,98061.47
2022-11-15T03:31:27.131Z,98062.47
2022-11-15T03:33:56.792Z,98054.50
2022-11-15T03:36:26.105Z,98055.34
2022-11-15T03:38:58.313Z,98049.16
2022-11-15T03:41:34.258Z,98035.91
2022-11-15T03:44:32.953Z,98033.03
2022-11-15T03:47:09.892Z,98029.53
2022-11-15T03:49:39.778Z,98027.59
2022-11-15T03:52:07.248Z,98030.50
2022-11-15T03:54:33.858Z,98032.44
2022-11-15T03:57:00.533Z,98044.84
2022-11-15T03:59:27.222Z,98047.59
2022-11-15T04:01:53.973Z,98039.34
2022-11-15T04:04:20.665Z,98045.66
2022-11-15T04:06:47.396Z,98057.44
2022-11-15T04:09:14.084Z,98052.19
2022-11-15T04:11:40.643Z,98050.88
2022-11-15T04:14:07.355Z,98043.59
2022-11-15T04:16:33.946Z,98045.16
2022-11-15T04:19:19.135Z,98038.88
2022-11-15T04:22:04.262Z,98043.59
2022-11-15T04:24:30.920Z,98045.00
2022-11-15T04:26:57.527Z,98029.41
2022-11-15T04:29:36.433Z,98040.09
2022-11-15T04:32:07.909Z,98038.03
2022-11-15T04:34:34.453Z,98025.47
2022-11-15T04:37:13.173Z,98025.50
2022-11-15T04:39:44.399Z,98021.94
2022-11-15T04:42:11.905Z,98020.88
2022-11-15T04:44:38.500Z,98014.63
2022-11-15T04:47:05.647Z,98014.44
2022-11-15T04:49:32.423Z,98019.69
2022-11-15T04:51:59.151Z,98003.97
2022-11-15T04:54:25.837Z,98010.84
2022-11-15T04:56:52.496Z,98003.06
2022-11-15T04:59:19.069Z,98008.44
2022-11-15T05:01:45.653Z,98017.53
2022-11-15T05:04:21.899Z,98015.81
2022-11-15T05:06:50.110Z,98011.63
2022-11-15T05:09:18.295Z,98008.34
2022-11-15T05:11:45.237Z,98008.41
2022-11-15T05:14:12.064Z,98017.75
2022-11-15T05:16:38.861Z,98016.94
2022-11-15T05:19:05.950Z,98020.72
2022-11-15T05:21:33.334Z,98009.81
2022-11-15T05:24:00.039Z,98007.78
2022-11-15T05:26:27.234Z,98010.19
2022-11-15T05:28:56.217Z,98004.91
2022-11-15T05:31:23.334Z,97996.19
2022-11-15T05:33:51.839Z,97995.97
2022-11-15T05:36:42.011Z,97989.03
2022-11-15T05:39:10.219Z,97998.91
2022-11-15T05:41:40.356Z,97996.97
2022-11-15T05:44:10.525Z,97996.19
2022-11-15T05:46:40.970Z,97987.28
2022-11-15T05:49:11.591Z,97989.94
2022-11-15T05:51:38.522Z,97991.72
2022-11-15T05:54:05.303Z,97989.44
2022-11-15T05:56:32.257Z,98001.56
2022-11-15T05:59:00.177Z,98000.44
2022-11-15T06:01:27.902Z,97999.06
2022-11-15T06:03:54.836Z,98016.63
2022-11-15T06:06:21.621Z,98013.41
2022-11-15T06:08:48.998Z,98026.91
2022-11-15T06:11:15.632Z,98034.75
2022-11-15T06:13:42.268Z,98036.56
2022-11-15T06:16:08.946Z,98031.66
2022-11-15T06:18:36.506Z,98029.22
2022-11-15T06:21:03.349Z,98033.97
2022-11-15T06:23:33.594Z,98031.06
2022-11-15T06:26:00.767Z,98031.44
2022-11-15T06:28:31.121Z,98027.44
2022-11-15T06:31:03.017Z,98029.97
2022-11-15T06:33:30.000Z,98025.25
2022-11-15T06:35:57.030Z,98021.50
2022-11-15T06:38:23.717Z,98032.25
2022-11-15T06:40:50.296Z,98037.53
2022-11-15T06:43:17.166Z,98038.31
2022-11-15T06:45:43.845Z,98040.25
2022-11-15T06:48:10.488Z,98048.09
2022-11-15T06:50:37.063Z,98045.56
2022-11-15T06:53:06.794Z,98042.19
2022-11-15T06:55:33.284Z,98051.03
2022-11-15T06:57:59.767Z,98051.94
2022-11-15T07:00:26.451Z,98046.84
2022-11-15T07:02:53.152Z,98058.97
2022-11-15T07:05:19.996Z,98044.78
2022-11-15T07:07:53.479Z,98040.16
2022-11-15T07:10:20.237Z,98038.66
2022-11-15T07:12:50.170Z,98041.69
2022-11-15T07:15:21.133Z,98051.06
2022-11-15T07:17:47.796Z,98050.50
2022-11-15T07:20:15.564Z,98051.19
2022-11-15T07:22:42.591Z,98052.09
2022-11-15T07:25:10.503Z,98051.97
2022-11-15T07:27:37.125Z,98056.47
2022-11-15T07:30:04.514Z,98049.25
2022-11-15T07:32:31.186Z,98056.09
2022-11-15T07:34:57.878Z,98055.88
2022-11-15T07:37:24.543Z,98058.44
2022-11-15T07:39:51.109Z,98069.88
2022-11-15T07:42:36.414Z,98068.88
2022-11-15T07:45:03.254Z,98073.19
2022-11-15T07:47:30.314Z,98073.13
2022-11-15T07:49:56.921Z,98079.41
2022-11-15T07:52:23.795Z,98075.56
2022-11-15T07:54:50.462Z,98080.28
2022-11-15T07:57:17.210Z,98084.16
2022-11-15T07:59:43.890Z,98078.75
2022-11-15T08:02:10.990Z,98075.06
2022-11-15T08:04:37.738Z,98064.75
2022-11-15T08:07:04.389Z,98057.94
2022-11-15T08:09:30.981Z,98057.84
2022-11-15T08:11:57.645Z,98059.00
2022-11-15T08:14:24.398Z,98052.25
2022-11-15T08:16:51.037Z,98056.94
2022-11-15T08:19:17.704Z,98040.47
2022-11-15T08:21:44.409Z,98048.97
2022-11-15T08:24:12.126Z,98037.94
2022-11-15T08:26:39.122Z,98030.91
2022-11-15T08:29:05.828Z,98028.69
2022-11-15T08:31:32.487Z,98028.69
2022-11-15T08:33:59.232Z,98034.13
2022-11-15T08:36:25.921Z,98032.78
2022-11-15T08:38:52.499Z,98030.75
2022-11-15T08:41:34.421Z,98017.94
2022-11-15T08:44:01.041Z,98027.13
2022-11-15T08:46:27.692Z,98014.81
2022-11-15T08:48:54.381Z,98023.28
2022-11-15T08:51:21.196Z,98019.00
2022-11-15T08:53:48.045Z,98013.91
2022-11-15T08:56:16.244Z,98004.09
2022-11-15T08:58:43.798Z,97996.94
2022-11-15T09:01:21.616Z,98000.38
2022-11-15T09:03:48.504Z,97996.84
2022-11-15T09:06:15.941Z,98005.47
2022-11-15T09:08:49.809Z,97996.78
2022-11-15T09:11:19.012Z,97995.06
2022-11-15T09:13:45.612Z,97998.00
2022-11-15T09:16:13.671Z,97998.00
2022-11-15T09:18:40.403Z,97995.09
2022-11-15T09:21:07.166Z,97991.94
2022-11-15T09:23:34.056Z,97994.97
2022-11-15T09:26:02.411Z,97991.69
2022-11-15T09:28:30.282Z,97979.25
2022-11-15T09:31:01.878Z,97984.69
2022-11-15T09:33:29.511Z,97991.94
2022-11-15T09:36:18.569Z,97988.22
2022-11-15T09:38:46.166Z,97979.09
2022-11-15T09:41:12.733Z,97985.56
2022-11-15T09:44:03.521Z,97988.78
2022-11-15T09:46:38.901Z,97977.63
2022-11-15T09:49:05.869Z,97980.75
2022-11-15T09:51:48.955Z,97970.19
2022-11-15T09:57:20.061Z,97976.44
2022-11-15T10:00:04.218Z,97962.44
2022-11-15T10:03:10.269Z,97969.03
2022-11-15T10:05:41.547Z,97966.19
2022-11-15T10:08:30.461Z,97957.53
2022-11-15T10:11:35.526Z,97956.97
2022-11-15T10:13:53.694Z,97951.38
2022-11-15T10:16:26.413Z,97948.25
2022-11-15T10:19:08.039Z,97939.81
2022-11-15T10:21:59.434Z,97941.09
2022-11-15T10:24:29.423Z,97940.41
2022-11-15T10:26:57.143Z,97931.72
2022-11-15T10:29:27.075Z,97934.91
2022-11-15T10:31:54.441Z,97935.00
2022-11-15T10:34:24.122Z,97926.47
2022-11-15T10:37:03.131Z,97930.44
2022-11-15T10:39:30.264Z,97915.31
2022-11-15T10:41:56.978Z,97913.69
2022-11-15T10:44:29.949Z,97915.56
2022-11-15T10:46:56.450Z,97909.84
2022-11-15T10:49:31.337Z,97904.44
2022-11-15T10:52:13.244Z,97901.75
2022-11-15T10:54:50.836Z,97893.69
2022-11-15T10:57:25.296Z,97889.66
2022-11-15T11:00:21.372Z,97898.53
2022-11-15T11:02:56.738Z,97894.22
2022-11-15T11:05:42.585Z,97890.25
2022-11-15T11:08:12.340Z,97893.69
2022-11-15T11:11:00.068Z,97894.38
2022-11-15T11:13:45.833Z,97891.63
2022-11-15T11:16:15.166Z,97885.31
2022-11-15T11:19:02.197Z,97882.06
2022-11-15T11:21:46.935Z,97881.88
2022-11-15T11:24:26.474Z,97873.19
2022-11-15T11:26:57.149Z,97876.59
2022-11-15T11:29:50.362Z,97865.13
2022-11-15T11:32:51.273Z,97872.31
2022-11-15T11:35:23.600Z,97857.47
2022-11-15T11:38:10.985Z,97856.94
2022-11-15T11:41:02.541Z,97853.34
2022-11-15T11:43:38.877Z,97851.09
2022-11-15T11:46:26.110Z,97849.28
2022-11-15T11:49:00.102Z,97844.75
2022-11-15T11:51:40.550Z,97843.91
2022-11-15T11:54:15.395Z,97845.09
2022-11-15T11:56:45.546Z,97836.78
2022-11-15T11:59:49.338Z,97845.25
2022-11-15T12:02:43.224Z,97831.81
2022-11-15T12:05:30.154Z,97828.66
2022-11-15T12:08:05.674Z,97829.34
2022-11-15T12:10:35.664Z,97821.59
2022-11-15T12:13:08.985Z,97809.97
2022-11-15T12:15:46.717Z,97813.94
2022-11-15T12:18:16.274Z,97814.91
2022-11-15T12:20:53.901Z,97813.78
2022-11-15T12:23:51.750Z,97814.81
2022-11-15T12:26:23.521Z,97810.38
2022-11-15T12:29:07.625Z,97810.19
2022-11-15T12:31:35.219Z,97796.22
2022-11-15T12:34:46.202Z,97804.38
2022-11-15T12:37:38.801Z,97798.16
2022-11-15T12:40:24.738Z,97799.00
2022-11-15T12:43:27.010Z,97784.66
2022-11-15T12:45:53.753Z,97788.56
2022-11-15T12:48:20.523Z,97788.06
2022-11-15T12:50:56.368Z,97779.09
2022-11-15T12:53:25.883Z,97782.94
2022-11-15T12:56:04.900Z,97776.00
2022-11-15T12:58:56.181Z,97783.16
2022-11-15T13:01:32.214Z,97773.59
2022-11-15T13:04:20.816Z,97769.00
2022-11-15T13:06:51.734Z,97765.41
2022-11-15T13:09:33.720Z,97763.28
2022-11-15T13:12:05.081Z,97762.13
2022-11-15T13:14:40.959Z,97765.91
2022-11-15T13:17:22.724Z,97753.91
2022-11-15T13:20:02.302Z,97760.72
2022-11-15T13:22:51.936Z,97755.63
2022-11-15T13:25:39.689Z,97752.00
2022-11-15T13:28:15.425Z,97752.78
2022-11-15T13:30:48.029Z,97742.16
2022-11-15T13:33:39.465Z,97741.34
2022-11-15T13:36:14.591Z,97742.41
2022-11-15T13:38:42.380Z,97737.72
2022-11-15T13:41:18.806Z,97736.19
2022-11-15T13:43:45.780Z,97743.59
2022-11-15T13:46:17.010Z,97740.00
2022-11-15T13:48:45.383Z,97736.75
2022-11-15T13:51:27.065Z,97727.34
2022-11-15T13:54:03.005Z,97732.19
2022-11-15T13:56:32.605Z,97720.91
2022-11-15T13:58:59.727Z,97724.94
2022-11-15T14:01:30.560Z,97733.22
2022-11-15T14:04:00.240Z,97725.78
2022-11-15T14:06:29.821Z,97716.13
2022-11-15T14:09:39.380Z,97712.44
2022-11-15T14:12:34.358Z,97709.81
2022-11-15T14:15:18.873Z,97700.34
2022-11-15T14:17:50.072Z,97698.78
2022-11-15T14:20:26.353Z,97695.97
2022-11-15T14:22:58.496Z,97698.63
2022-11-15T14:25:53.605Z,97696.84
2022-11-15T14:28:25.978Z,97699.72
2022-11-15T14:30:58.590Z,97698.44
2022-11-15T14:33:30.906Z,97698.69
2022-11-15T14:36:03.194Z,97697.56
2022-11-15T14:38:30.989Z,97696.19
2022-11-15T14:40:58.656Z,97686.56
2022-11-15T14:43:27.904Z,97686.88
2022-11-15T14:45:54.705Z,97687.16
2022-11-15T14:48:21.622Z,97680.06
2022-11-15T14:50:48.290Z,97685.06
2022-11-15T14:53:17.634Z,97678.06
2022-11-15T14:55:45.085Z,97680.34
2022-11-15T14:58:11.951Z,97676.84
2022-11-15T15:00:41.417Z,97677.34
2022-11-15T15:03:08.501Z,97673.97
2022-11-15T15:05:36.854Z,97671.69
2022-11-15T15:08:03.947Z,97679.53
2022-11-15T15:10:41.425Z,97671.13
2022-11-15T15:13:19.019Z,97672.06
2022-11-15T15:15:45.800Z,97677.75
2022-11-15T15:18:12.514Z,97671.53
2022-11-15T15:20:41.287Z,97674.72
2022-11-15T15:23:20.115Z,97668.63
2022-11-15T15:25:50.079Z,97664.94
2022-11-15T15:28:17.119Z,97670.31
2022-11-15T15:30:44.160Z,97664.00
2022-11-15T15:33:10.823Z,97661.75
2022-11-15T15:35:37.801Z,97658.25
2022-11-15T15:38:05.006Z,97656.53
2022-11-15T15:40:34.245Z,97654.50
2022-11-15T15:43:01.398Z,97651.72
2022-11-15T15:45:29.280Z,97649.84
2022-11-15T15:47:56.435Z,97649.38
2022-11-15T15:50:33.227Z,97659.47
2022-11-15T15:53:01.767Z,97661.34
2022-11-15T15:55:28.896Z,97656.34
2022-11-15T15:57:56.267Z,97663.28
2022-11-15T16:00:25.940Z,97665.78
2022-11-15T16:02:53.381Z,97661.09
2022-11-15T16:05:20.080Z,97658.50
2022-11-15T16:07:48.531Z,97653.50
2022-11-15T16:10:18.025Z,97650.09
2022-11-15T16:12:45.344Z,97646.97
2022-11-15T16:15:12.136Z,97654.59
2022-11-15T16:17:43.408Z,97648.84
2022-11-15T16:20:22.357Z,97655.94
2022-11-15T16:22:48.840Z,97651.25
2022-11-15T16:25:15.497Z,97642.53
2022-11-15T16:27:46.044Z,97638.97
2022-11-15T16:30:17.835Z,97641.03
2022-11-15T16:32:44.649Z,97645.75
2022-11-15T16:35:16.404Z,97648.81
2022-11-15T16:37:45.231Z,97647.38
2022-11-15T16:40:23.662Z,97643.97
2022-11-15T16:42:50.229Z,97641.47
2022-11-15T16:45:16.923Z,97645.03
2022-11-15T16:47:43.606Z,97641.84
2022-11-15T16:50:43.219Z,97638.97
2022-11-15T16:53:09.781Z,97637.19
2022-11-15T16:55:36.470Z,97630.41
2022-11-15T16:58:03.275Z,97630.56
2022-11-15T17:00:29.934Z,97629.28
2022-11-15T17:02:56.810Z,97632.41
2022-11-15T17:05:24.676Z,97624.44
2022-11-15T17:07:55.250Z,97632.25
2022-11-15T17:10:24.014Z,97625.72
2022-11-15T17:12:51.285Z,97622.16
2022-11-15T17:15:18.604Z,97615.50
2022-11-15T17:17:50.910Z,97612.47
2022-11-15T17:20:19.463Z,97604.78
2022-11-15T17:22:47.307Z,97608.22
2022-11-15T17:25:14.170Z,97596.81
2022-11-15T17:27:40.976Z,97605.59
2022-11-15T17:30:08.108Z,97601.47
2022-11-15T17:32:37.991Z,97601.25
2022-11-15T17:35:12.060Z,97600.72
2022-11-15T17:37:41.736Z,97595.88
2022-11-15T17:40:08.895Z,97598.38
2022-11-15T17:42:35.593Z,97603.69
2022-11-15T17:45:08.165Z,97598.78
2022-11-15T17:47:36.068Z,97596.28
2022-11-15T17:50:02.637Z,97606.25
2022-11-15T17:52:29.336Z,97596.19
2022-11-15T17:54:55.930Z,97595.44
2022-11-15T17:57:22.786Z,97595.09
2022-11-15T17:59:49.348Z,97589.84
2022-11-15T18:02:16.014Z,97591.53
2022-11-15T18:04:42.745Z,97588.66
2022-11-15T18:07:11.883Z,97586.16
2022-11-15T18:09:42.372Z,97578.69
2022-11-15T18:12:09.465Z,97575.97
2022-11-15T18:14:36.341Z,97573.22
2022-11-15T18:17:03.073Z,97571.50
2022-11-15T18:19:29.778Z,97565.44
2022-11-15T18:21:56.564Z,97563.72
2022-11-15T18:24:31.748Z,97565.44
2022-11-15T18:27:00.059Z,97560.03
2022-11-15T18:29:27.170Z,97558.16
2022-11-15T18:31:57.695Z,97552.25
2022-11-15T18:34:28.904Z,97551.41
2022-11-15T18:36:55.571Z,97542.63
2022-11-15T18:39:22.169Z,97540.16
2022-11-15T18:41:49.110Z,97539.22
2022-11-15T18:44:16.669Z,97539.50
2022-11-15T18:46:45.233Z,97532.72
2022-11-15T18:49:14.488Z,97528.97
2022-11-15T18:51:42.275Z,97525.72
2022-11-15T18:54:11.170Z,97518.41
2022-11-15T18:56:38.243Z,97519.19
2022-11-15T18:59:05.471Z,97523.97
2022-11-15T19:01:37.848Z,97513.56
2022-11-15T19:04:10.694Z,97506.66
2022-11-15T19:06:40.456Z,97511.00
2022-11-15T19:09:08.548Z,97514.97
2022-11-15T19:11:37.365Z,97510.72
2022-11-15T19:14:06.501Z,97512.69
2022-11-15T19:16:36.274Z,97513.31
2022-11-15T19:19:05.533Z,97505.47
2022-11-15T19:21:32.783Z,97504.53
2022-11-15T19:24:00.325Z,97497.47
2022-11-15T19:26:28.844Z,97494.34
2022-11-15T19:29:00.284Z,97494.97
2022-11-15T19:31:29.386Z,97496.84
2022-11-15T19:33:58.051Z,97491.72
2022-11-15T19:36:27.866Z,97487.50
2022-11-15T19:38:57.603Z,97490.78
2022-11-15T19:41:25.359Z,97484.66
2022-11-15T19:43:53.104Z,97496.50
2022-11-15T19:46:22.001Z,97482.84
2022-11-15T19:48:49.368Z,97486.25
2022-11-15T19:51:22.051Z,97476.78
2022-11-15T19:53:50.326Z,97487.53
2022-11-15T19:56:18.688Z,97482.69
2022-11-15T19:58:46.459Z,97475.63
2022-11-15T20:01:31.116Z,97474.00
2022-11-15T20:03:59.729Z,97474.97
2022-11-15T20:06:35.127Z,97473.16
2022-11-15T20:09:01.711Z,97462.16
2022-11-15T20:11:28.510Z,97463.59
2022-11-15T20:13:57.870Z,97451.78
2022-11-15T20:16:25.568Z,97451.06
2022-11-15T20:18:53.386Z,97446.72
2022-11-15T20:21:20.910Z,97449.13
2022-11-15T20:23:56.653Z,97445.88
2022-11-15T20:26:23.344Z,97443.88
2022-11-15T20:28:50.340Z,97446.50
2022-11-15T20:31:19.443Z,97437.81
2022-11-15T20:33:46.074Z,97445.94
2022-11-15T20:36:15.664Z,97446.16
2022-11-15T20:38:43.475Z,97450.50
2022-11-15T20:41:11.014Z,97451.69
2022-11-15T20:43:37.826Z,97449.91
2022-11-15T20:46:04.756Z,97450.19
2022-11-15T20:48:32.288Z,97443.56
2022-11-15T20:51:12.599Z,97445.16
2022-11-15T20:53:40.272Z,97460.38
2022-11-15T20:56:10.894Z,97453.72
2022-11-15T20:58:38.308Z,97451.84
2022-11-15T21:01:07.013Z,97457.13
2022-11-15T21:03:35.102Z,97458.81
2022-11-15T21:06:02.390Z,97443.19
2022-11-15T21:08:49.462Z,97450.56
2022-11-15T21:11:34.858Z,97444.53
2022-11-15T21:14:06.286Z,97446.09
2022-11-15T21:16:35.590Z,97445.97
2022-11-15T21:19:02.204Z,97441.91
2022-11-15T21:21:28.915Z,97432.50
2022-11-15T21:23:55.493Z,97437.75
2022-11-15T21:26:22.240Z,97426.78
2022-11-15T21:28:48.848Z,97421.53
2022-11-15T21:31:15.557Z,97428.06
2022-11-15T21:33:42.255Z,97414.91
2022-11-15T21:36:09.375Z,97415.00
2022-11-15T21:38:36.247Z,97416.63
2022-11-15T21:41:04.205Z,97417.44
2022-11-15T21:43:30.886Z,97417.44
2022-11-15T21:46:00.383Z,97418.47
2022-11-15T21:48:28.385Z,97417.81
2022-11-15T21:50:58.744Z,97396.66
2022-11-15T21:53:26.322Z,97397.69
2022-11-15T21:55:53.112Z,97386.25
2022-11-15T21:58:20.794Z,97383.69
2022-11-15T22:01:06.438Z,97376.56
2022-11-15T22:03:33.440Z,97371.25
2022-11-15T22:06:00.734Z,97357.44
2022-11-15T22:08:28.170Z,97357.38
2022-11-15T22:10:56.907Z,97355.09
2022-11-15T22:13:24.653Z,97356.94
2022-11-15T22:15:53.579Z,97357.59
2022-11-15T22:18:26.259Z,97351.69
2022-11-15T22:21:06.477Z,97354.31
2022-11-15T22:23:34.590Z,97351.25
2022-11-15T22:26:01.284Z,97346.78
2022-11-15T22:28:28.027Z,97344.38
2022-11-15T22:30:55.401Z,97342.59
2022-11-15T22:33:24.803Z,97350.75
2022-11-15T22:35:52.275Z,97336.91
2022-11-15T22:38:19.295Z,97340.50
2022-11-15T22:40:46.767Z,97332.59
2022-11-15T22:43:15.143Z,97344.06
2022-11-15T22:45:52.110Z,97341.00
2022-11-15T22:48:27.261Z,97329.78
2022-11-15T22:50:54.497Z,97325.22
2022-11-15T22:53:21.868Z,97317.28
2022-11-15T22:55:57.156Z,97309.31
2022-11-15T22:58:25.998Z,97303.66
2022-11-15T23:00:57.612Z,97304.47
2022-11-15T23:03:25.469Z,97299.34
2022-11-15T23:05:52.779Z,97299.41
2022-11-15T23:08:20.234Z,97291.94
2022-11-15T23:11:05.178Z,97288.81
2022-11-15T23:13:33.693Z,97285.84
2022-11-15T23:16:22.616Z,97285.72
2022-11-15T23:18:51.507Z,97273.16
2022-11-15T23:21:46.813Z,97264.59
2022-11-15T23:24:14.457Z,97267.06
2022-11-15T23:26:42.058Z,97272.75
2022-11-15T23:29:10.534Z,97267.22
2022-11-15T23:32:01.666Z,97263.66
2022-11-15T23:34:30.488Z,97258.38
2022-11-15T23:36:57.405Z,97263.50
2022-11-15T23:39:24.064Z,97267.06
2022-11-15T23:41:50.729Z,97255.69
2022-11-15T23:44:17.407Z,97246.28
2022-11-15T23:46:44.344Z,97242.88
2022-11-15T23:49:11.189Z,97234.63
2022-11-15T23:51:37.800Z,97238.88
2022-11-15T23:54:04.562Z,97237.19
2022-11-15T23:56:31.296Z,97245.88
2022-11-15T23:58:58.024Z,97255.00
